Time;durP1;ratioP1;P1;durP2;ratioP2;P2;SDS_P1;SDS_P2;PMS_P1;PMS_P2;Temp;Humidity;BMP_temperature;BMP_pressure;BME280_temperature;BME280_humidity;BME280_pressure;Samples;Min_cycle;Max_cycle;Signal;HPM_P1;HPM_P2
2022/04/30 00:01:30;;;;;;;6.10;4.90;;;9.40;85.90;;;;;;4197531;28;20180;-70
2022/04/30 00:03:30;;;;;;;5.93;4.67;;;9.40;85.80;;;;;;4197592;28;20201;-71
2022/04/30 00:05:33;;;;;;;7.10;4.77;;;9.50;85.00;;;;;;4196640;28;20209;-71
2022/04/30 00:07:33;;;;;;;6.90;4.70;;;9.50;85.30;;;;;;4197773;28;20188;-70
2022/04/30 00:09:36;;;;;;;6.83;4.70;;;9.40;85.60;;;;;;4198520;28;20201;-70
2022/04/30 00:11:36;;;;;;;6.77;5.10;;;9.40;86.10;;;;;;4197032;28;20193;-70
2022/04/30 00:13:38;;;;;;;4.40;4.00;;;9.40;86.20;;;;;;4197552;28;20178;-69
2022/04/30 00:15:39;;;;;;;4.20;3.80;;;9.40;86.80;;;;;;4197195;28;20759;-70
2022/04/30 00:17:40;;;;;;;4.80;4.10;;;9.50;86.00;;;;;;4197446;28;20178;-69
2022/04/30 00:19:40;;;;;;;5.23;3.83;;;9.50;85.60;;;;;;4196168;28;20304;-70
2022/04/30 00:21:42;;;;;;;5.20;3.90;;;9.50;84.50;;;;;;4197334;28;20217;-69
2022/04/30 00:23:42;;;;;;;4.67;4.13;;;9.50;84.40;;;;;;4195911;28;20186;-69
2022/04/30 00:25:43;;;;;;;5.90;4.60;;;9.60;83.50;;;;;;4196461;28;20176;-71
2022/04/30 00:27:44;;;;;;;5.60;3.97;;;9.70;82.10;;;;;;4197265;28;20224;-70
2022/04/30 00:29:45;;;;;;;5.27;3.67;;;9.70;81.80;;;;;;4196935;28;20237;-71
2022/04/30 00:31:46;;;;;;;6.60;4.13;;;9.70;82.30;;;;;;4197100;28;20190;-70
2022/04/30 00:33:48;;;;;;;7.30;4.17;;;9.70;81.50;;;;;;4197125;28;20194;-70
2022/04/30 00:35:49;;;;;;;4.70;4.30;;;9.70;82.80;;;;;;4196348;28;20208;-70
2022/04/30 00:37:49;;;;;;;6.07;4.43;;;9.60;82.40;;;;;;4197036;28;20174;-71
2022/04/30 00:39:50;;;;;;;4.63;4.17;;;9.70;82.50;;;;;;4196706;28;20253;-70
2022/04/30 00:41:51;;;;;;;5.07;4.57;;;9.60;83.30;;;;;;4196903;28;20208;-71
2022/04/30 00:43:54;;;;;;;4.63;4.13;;;9.70;82.50;;;;;;4196788;28;20180;-71
2022/04/30 00:45:54;;;;;;;5.83;4.00;;;9.60;83.10;;;;;;4196224;28;20179;-70
2022/04/30 00:47:55;;;;;;;5.03;4.40;;;9.70;83.00;;;;;;4196791;28;20296;-72
2022/04/30 00:49:56;;;;;;;5.17;4.10;;;9.70;82.90;;;;;;4196780;28;20195;-71
2022/04/30 00:52:02;;;;;;;5.77;4.27;;;9.60;82.90;;;;;;4196826;28;20186;-70
2022/04/30 00:54:06;;;;;;;4.43;4.03;;;9.50;83.20;;;;;;4196694;28;20176;-71
2022/04/30 00:56:12;;;;;;;5.10;4.60;;;9.60;83.30;;;;;;4183776;28;20188;-71
2022/04/30 00:58:18;;;;;;;7.90;5.17;;;9.50;84.50;;;;;;4179187;28;20169;-70
2022/04/30 01:00:19;;;;;;;6.40;4.93;;;9.40;85.60;;;;;;4178911;28;20520;-70
2022/04/30 01:02:21;;;;;;;5.03;4.30;;;9.40;85.10;;;;;;4180487;28;20241;-70
2022/04/30 01:04:21;;;;;;;5.60;4.33;;;9.50;84.30;;;;;;4178747;28;20264;-70
2022/04/30 01:06:52;;;;;;;7.27;4.60;;;9.40;84.10;;;;;;4178000;28;20292;-70
2022/04/30 01:08:53;;;;;;;5.23;4.27;;;9.50;83.90;;;;;;4180024;28;20256;-71
2022/04/30 01:10:56;;;;;;;4.17;3.77;;;9.50;84.60;;;;;;4180004;28;20274;-72
2022/04/30 01:12:57;;;;;;;4.47;4.07;;;9.40;85.30;;;;;;4178830;28;20182;-71
2022/04/30 01:14:57;;;;;;;5.03;4.53;;;9.40;85.70;;;;;;4178626;28;20179;-70
2022/04/30 01:16:59;;;;;;;6.27;4.20;;;9.50;85.30;;;;;;4179467;28;20219;-70
2022/04/30 01:19:02;;;;;;;5.30;4.37;;;9.50;84.30;;;;;;4178314;28;20233;-71
2022/04/30 01:21:13;;;;;;;4.90;4.40;;;9.50;84.80;;;;;;4180094;28;20214;-70
2022/04/30 01:23:16;;;;;;;5.93;4.00;;;9.50;84.70;;;;;;4178920;28;20548;-71
2022/04/30 01:25:19;;;;;;;4.20;3.77;;;9.50;84.80;;;;;;4179720;28;20220;-71
2022/04/30 01:27:22;;;;;;;4.97;3.87;;;9.50;84.60;;;;;;4179452;28;20194;-71
2022/04/30 01:29:24;;;;;;;4.33;3.93;;;9.50;83.40;;;;;;4179660;28;20991;-72
2022/04/30 01:38:23;;;;;;;5.60;4.53;;;9.50;81.10;;;;;;4179668;28;20203;-71
2022/04/30 01:40:24;;;;;;;6.00;4.80;;;9.50;81.00;;;;;;4178339;28;20461;-71
2022/04/30 01:42:29;;;;;;;9.50;5.07;;;9.60;80.50;;;;;;4179690;28;20437;-70
2022/04/30 01:44:30;;;;;;;7.90;5.23;;;9.70;80.20;;;;;;4179701;28;20204;-71
2022/04/30 01:46:31;;;;;;;7.03;4.90;;;9.70;80.10;;;;;;4195538;28;20194;-70
2022/04/30 01:48:32;;;;;;;8.90;5.87;;;9.70;79.70;;;;;;4195867;28;20290;-71
2022/04/30 01:50:34;;;;;;;7.47;5.70;;;9.70;79.90;;;;;;4196012;28;20184;-71
2022/04/30 01:52:36;;;;;;;8.00;6.43;;;9.70;80.80;;;;;;4196081;28;20231;-71
2022/04/30 01:54:37;;;;;;;8.20;6.83;;;9.60;80.90;;;;;;4194682;28;20187;-71
2022/04/30 01:56:37;;;;;;;6.10;5.50;;;9.70;80.60;;;;;;4194133;28;20193;-71
2022/04/30 01:58:38;;;;;;;9.37;6.93;;;9.80;80.10;;;;;;4196206;28;20198;-71
2022/04/30 02:00:39;;;;;;;8.10;6.20;;;9.80;80.30;;;;;;4196153;28;20182;-72
2022/04/30 02:02:44;;;;;;;8.70;6.20;;;9.80;81.30;;;;;;4194794;28;20206;-70
2022/04/30 02:04:45;;;;;;;8.57;6.67;;;9.80;81.20;;;;;;4194571;28;20202;-72
2022/04/30 02:06:46;;;;;;;9.40;6.97;;;9.80;81.60;;;;;;4194161;28;20596;-72
2022/04/30 02:08:47;;;;;;;9.30;6.50;;;9.70;81.70;;;;;;4195342;28;20212;-71
2022/04/30 02:10:48;;;;;;;7.30;6.37;;;9.80;81.60;;;;;;4196082;28;20241;-72
2022/04/30 02:12:51;;;;;;;9.47;6.77;;;9.70;82.30;;;;;;4196349;28;20196;-72
2022/04/30 02:14:52;;;;;;;9.13;7.27;;;9.70;82.30;;;;;;4195173;28;20217;-72
2022/04/30 02:16:52;;;;;;;8.23;7.07;;;9.70;82.40;;;;;;4193186;28;20189;-72
2022/04/30 02:18:55;;;;;;;9.40;6.83;;;9.60;83.50;;;;;;4194971;28;20225;-72
2022/04/30 02:20:56;;;;;;;12.10;6.53;;;9.50;83.80;;;;;;4193815;28;20257;-72
2022/04/30 02:23:01;;;;;;;9.67;7.57;;;9.60;83.30;;;;;;4194982;28;20801;-72
2022/04/30 02:25:03;;;;;;;11.80;7.30;;;9.50;83.40;;;;;;4193780;28;20210;-72
2022/04/30 02:27:04;;;;;;;8.53;6.87;;;9.50;84.10;;;;;;4195043;28;20569;-72
2022/04/30 02:29:07;;;;;;;8.53;6.27;;;9.50;85.00;;;;;;4195070;28;20202;-74
2022/04/30 02:31:07;;;;;;;13.43;7.03;;;9.60;83.60;;;;;;4198086;28;20178;-71
2022/04/30 02:33:11;;;;;;;9.87;7.80;;;9.60;84.30;;;;;;4198491;28;20182;-72
2022/04/30 02:35:18;;;;;;;10.13;7.33;;;9.60;84.50;;;;;;4197007;28;20185;-73
2022/04/30 02:37:21;;;;;;;10.67;7.53;;;9.60;84.60;;;;;;4195705;28;20193;-72
2022/04/30 02:39:22;;;;;;;8.73;7.50;;;9.60;85.50;;;;;;4193995;28;20211;-72
2022/04/30 02:41:23;;;;;;;8.13;6.80;;;9.60;84.90;;;;;;4198131;28;20216;-72
2022/04/30 02:43:26;;;;;;;8.83;7.73;;;9.70;84.50;;;;;;4197943;28;20196;-72
2022/04/30 02:45:27;;;;;;;11.60;7.90;;;9.60;85.70;;;;;;4197472;28;20298;-72
2022/04/30 02:47:28;;;;;;;10.20;7.20;;;9.70;85.70;;;;;;4185568;28;20202;-73
2022/04/30 02:49:28;;;;;;;8.87;7.57;;;9.70;85.80;;;;;;4181376;28;20196;-72
2022/04/30 02:51:29;;;;;;;9.13;7.10;;;9.60;87.00;;;;;;4181363;28;20200;-73
2022/04/30 02:53:30;;;;;;;10.63;9.03;;;9.50;89.10;;;;;;4179812;28;20181;-72
2022/04/30 02:55:31;;;;;;;12.50;8.30;;;9.30;91.70;;;;;;4186361;28;20313;-72
2022/04/30 02:57:39;;;;;;;11.67;9.57;;;9.20;93.30;;;;;;4197596;28;20197;-72
2022/04/30 02:59:54;;;;;;;12.83;8.90;;;9.10;95.40;;;;;;4197637;28;20198;-73
2022/04/30 03:01:55;;;;;;;11.20;8.83;;;8.90;96.10;;;;;;4196491;28;20695;-72
2022/04/30 03:03:56;;;;;;;15.83;10.37;;;8.90;97.30;;;;;;4197432;28;20434;-72
2022/04/30 03:05:57;;;;;;;13.83;10.33;;;8.80;99.40;;;;;;4196969;28;20208;-72
2022/04/30 03:07:58;;;;;;;16.17;12.73;;;8.80;99.90;;;;;;4196243;28;20284;-72
2022/04/30 03:09:59;;;;;;;15.07;11.30;;;8.70;99.90;;;;;;4196378;28;20626;-72
2022/04/30 03:12:00;;;;;;;18.60;12.23;;;8.60;99.90;;;;;;4197522;28;20436;-72
2022/04/30 03:14:00;;;;;;;19.80;13.57;;;8.60;99.90;;;;;;4196180;28;20647;-72
2022/04/30 03:21:41;;;;;;;18.77;13.20;;;8.50;99.90;;;;;;4196837;28;20843;-73
2022/04/30 03:23:18;;;;;;;17.43;13.57;;;8.60;99.90;;;;;;4211786;28;20489;-72
2022/04/30 03:25:19;;;;;;;17.90;12.60;;;8.60;99.90;;;;;;4202939;28;21315;-73
2022/04/30 03:27:20;;;;;;;16.80;13.07;;;8.60;99.90;;;;;;4197387;28;20214;-73
2022/04/30 03:29:20;;;;;;;18.27;11.97;;;8.40;99.90;;;;;;4197690;28;20667;-74
2022/04/30 03:31:21;;;;;;;18.47;13.23;;;8.50;99.90;;;;;;4197134;28;20185;-74
2022/04/30 03:33:22;;;;;;;19.90;13.60;;;8.40;99.90;;;;;;4195880;28;20188;-73
2022/04/30 03:35:23;;;;;;;18.43;13.03;;;8.40;99.90;;;;;;4211980;28;20232;-73
2022/04/30 03:37:23;;;;;;;21.80;13.33;;;8.40;99.90;;;;;;4195908;28;20226;-73
2022/04/30 03:39:24;;;;;;;18.57;14.43;;;8.50;99.90;;;;;;4197267;28;20204;-73
2022/04/30 03:41:25;;;;;;;22.93;15.43;;;8.50;99.90;;;;;;4195255;28;20187;-73
2022/04/30 03:43:25;;;;;;;18.97;14.27;;;8.50;99.90;;;;;;4196977;28;20241;-73
2022/04/30 03:45:26;;;;;;;19.40;15.27;;;8.40;99.90;;;;;;4178336;28;20212;-73
2022/04/30 03:47:27;;;;;;;23.27;15.40;;;8.40;99.90;;;;;;4195369;28;20176;-73
2022/04/30 03:49:27;;;;;;;21.17;15.00;;;8.40;99.90;;;;;;4196950;28;20204;-73
2022/04/30 03:51:28;;;;;;;26.13;17.20;;;8.50;99.90;;;;;;4196968;28;20725;-73
2022/04/30 03:53:29;;;;;;;23.80;15.63;;;8.50;99.90;;;;;;4195805;28;20624;-73
2022/04/30 03:55:30;;;;;;;26.93;18.60;;;8.50;99.90;;;;;;4195444;28;20778;-72
2022/04/30 03:57:31;;;;;;;24.77;16.83;;;8.50;99.90;;;;;;4196843;28;20841;-73
2022/04/30 03:59:33;;;;;;;24.13;15.93;;;8.50;99.90;;;;;;4196763;28;20204;-73
2022/04/30 04:01:35;;;;;;;24.80;18.17;;;8.50;99.90;;;;;;4196672;28;20459;-73
2022/04/30 04:03:36;;;;;;;26.33;17.90;;;8.60;99.90;;;;;;4195517;28;20438;-73
2022/04/30 04:05:38;;;;;;;25.53;19.00;;;8.50;99.90;;;;;;4196131;28;20499;-73
2022/04/30 04:07:44;;;;;;;25.50;17.53;;;8.50;99.90;;;;;;4196988;28;20190;-73
2022/04/30 04:09:44;;;;;;;29.43;18.77;;;8.40;99.90;;;;;;4195460;28;20480;-72
2022/04/30 04:11:45;;;;;;;33.43;20.17;;;8.40;99.90;;;;;;4195040;28;20805;-73
2022/04/30 04:18:25;;;;;;;26.83;17.20;;;8.40;99.90;;;;;;4195277;28;20420;-73
2022/04/30 04:20:25;;;;;;;29.63;18.93;;;8.40;99.90;;;;;;4195359;28;20430;-73
2022/04/30 04:22:26;;;;;;;33.53;19.97;;;8.50;99.90;;;;;;4196474;28;20186;-73
2022/04/30 04:26:46;;;;;;;31.93;20.07;;;8.50;99.90;;;;;;4195901;28;20980;-73
2022/04/30 04:28:47;;;;;;;40.03;23.40;;;8.40;99.90;;;;;;4196626;28;20438;-73
2022/04/30 04:30:48;;;;;;;45.10;24.93;;;8.40;99.90;;;;;;4196203;28;20569;-73
2022/04/30 04:32:49;;;;;;;35.27;19.77;;;8.40;99.90;;;;;;4194839;28;20632;-73
2022/04/30 04:34:50;;;;;;;33.87;22.03;;;8.40;99.90;;;;;;4194807;28;20647;-73
2022/04/30 04:36:51;;;;;;;35.03;22.53;;;8.40;99.90;;;;;;4195688;28;20496;-73
2022/04/30 04:38:51;;;;;;;37.47;21.80;;;8.40;99.90;;;;;;4196125;28;20207;-74
2022/04/30 04:40:52;;;;;;;32.70;21.57;;;8.30;99.90;;;;;;4196299;28;20230;-74
2022/04/30 04:42:53;;;;;;;36.77;22.60;;;8.40;99.90;;;;;;4196265;28;20194;-74
2022/04/30 04:44:53;;;;;;;46.93;24.23;;;8.40;99.90;;;;;;4195911;28;20244;-74
2022/04/30 04:46:54;;;;;;;37.47;21.53;;;8.40;99.90;;;;;;4195173;28;20190;-74
2022/04/30 04:48:55;;;;;;;35.80;22.07;;;8.40;99.90;;;;;;4194812;28;20238;-74
2022/04/30 04:50:56;;;;;;;37.53;22.83;;;8.40;99.90;;;;;;4194643;28;20208;-74
2022/04/30 04:52:57;;;;;;;35.80;21.63;;;8.40;99.90;;;;;;4182304;28;20266;-74
2022/04/30 04:54:58;;;;;;;39.53;23.43;;;8.40;99.90;;;;;;4194092;28;20246;-74
2022/04/30 04:56:59;;;;;;;37.60;22.53;;;8.40;99.90;;;;;;4191820;28;20197;-74
2022/04/30 04:59:00;;;;;;;42.30;22.97;;;8.40;99.90;;;;;;4194484;28;20207;-74
2022/04/30 05:01:00;;;;;;;28.33;18.53;;;8.40;99.90;;;;;;4194519;28;20267;-74
2022/04/30 05:03:01;;;;;;;26.83;18.87;;;8.40;99.90;;;;;;4195633;28;20191;-74
2022/04/30 05:05:03;;;;;;;33.47;22.97;;;8.40;99.90;;;;;;4195460;28;20258;-75
2022/04/30 05:07:03;;;;;;;34.63;22.80;;;8.30;99.90;;;;;;4177334;28;20562;-73
2022/04/30 05:09:04;;;;;;;42.27;23.63;;;8.40;99.90;;;;;;4195400;28;20442;-73
2022/04/30 05:11:05;;;;;;;34.07;22.30;;;8.50;99.90;;;;;;4195391;28;20235;-73
2022/04/30 05:13:06;;;;;;;36.00;22.53;;;8.60;99.90;;;;;;4194152;28;20256;-73
2022/04/30 05:15:07;;;;;;;38.90;23.57;;;8.60;99.90;;;;;;4195428;28;20293;-73
2022/04/30 05:17:07;;;;;;;30.07;20.63;;;8.60;99.90;;;;;;4195026;28;20184;-74
2022/04/30 05:19:08;;;;;;;32.10;20.43;;;8.60;99.90;;;;;;4193961;28;20491;-74
2022/04/30 05:21:09;;;;;;;30.27;20.37;;;8.70;99.90;;;;;;4195581;28;20642;-74
2022/04/30 05:23:10;;;;;;;26.97;18.50;;;8.80;99.90;;;;;;4195420;28;20233;-74
2022/04/30 05:25:13;;;;;;;31.10;20.33;;;8.80;99.90;;;;;;4195220;28;20726;-74
2022/04/30 05:27:13;;;;;;;33.63;22.17;;;8.80;99.90;;;;;;4193734;28;20200;-74
2022/04/30 05:29:15;;;;;;;32.70;21.40;;;8.80;99.90;;;;;;4195181;28;20237;-74
2022/04/30 05:31:15;;;;;;;29.67;20.47;;;8.90;99.90;;;;;;4195133;28;20197;-74
2022/04/30 05:33:16;;;;;;;32.13;21.87;;;8.90;99.90;;;;;;4193824;28;20534;-74
2022/04/30 05:35:17;;;;;;;36.13;21.50;;;8.90;99.90;;;;;;4194914;28;20184;-74
2022/04/30 05:37:18;;;;;;;31.70;20.77;;;8.90;99.90;;;;;;4194800;28;20186;-74
2022/04/30 05:39:19;;;;;;;28.80;19.80;;;8.90;99.90;;;;;;4195061;28;20456;-74
2022/04/30 05:41:19;;;;;;;30.93;20.00;;;9.10;99.90;;;;;;4193899;28;20181;-75
2022/04/30 05:43:20;;;;;;;27.03;19.03;;;9.10;99.90;;;;;;4195123;28;20214;-74
2022/04/30 05:45:21;;;;;;;30.10;18.23;;;9.00;99.90;;;;;;4194278;28;20211;-73
2022/04/30 05:47:21;;;;;;;29.93;19.17;;;9.10;99.90;;;;;;4193710;28;20186;-74
2022/04/30 05:49:22;;;;;;;29.73;19.10;;;9.10;99.90;;;;;;4193661;28;20487;-74
2022/04/30 05:51:23;;;;;;;28.60;18.13;;;9.10;99.90;;;;;;4193792;28;20328;-74
2022/04/30 05:53:23;;;;;;;25.37;18.67;;;9.10;99.90;;;;;;4193454;28;20188;-74
2022/04/30 05:55:24;;;;;;;27.83;18.03;;;9.30;99.90;;;;;;4192678;28;20220;-74
2022/04/30 05:57:25;;;;;;;23.40;18.17;;;9.30;99.90;;;;;;4195070;28;20246;-74
2022/04/30 05:59:26;;;;;;;24.73;16.73;;;9.30;99.90;;;;;;4193448;28;20258;-74
2022/04/30 06:01:26;;;;;;;23.13;17.23;;;9.20;99.90;;;;;;4193090;28;20186;-74
2022/04/30 06:03:30;;;;;;;29.83;19.67;;;9.40;99.90;;;;;;4193411;28;20183;-74
2022/04/30 06:05:30;;;;;;;22.33;16.03;;;9.40;99.90;;;;;;4194380;28;20203;-74
2022/04/30 06:07:31;;;;;;;24.60;16.53;;;9.40;99.90;;;;;;4193668;28;20182;-74
2022/04/30 06:09:32;;;;;;;24.90;17.37;;;9.30;99.90;;;;;;4194962;28;20200;-74
2022/04/30 06:11:32;;;;;;;25.47;17.77;;;9.40;99.90;;;;;;4193572;28;20215;-75
2022/04/30 06:13:33;;;;;;;20.10;14.57;;;9.40;99.90;;;;;;4193539;28;20179;-75
2022/04/30 06:15:34;;;;;;;25.83;16.03;;;9.50;99.90;;;;;;4194324;28;20198;-75
2022/04/30 06:17:35;;;;;;;30.87;20.20;;;9.60;99.90;;;;;;4193575;28;20293;-73
2022/04/30 06:19:35;;;;;;;22.33;16.00;;;9.60;99.90;;;;;;4194605;28;20210;-75
2022/04/30 06:21:36;;;;;;;24.17;16.83;;;9.60;99.90;;;;;;4177102;28;20216;-75
2022/04/30 06:23:37;;;;;;;24.00;16.13;;;9.60;99.90;;;;;;4193555;28;20182;-76
2022/04/30 06:25:37;;;;;;;23.57;15.27;;;9.70;99.90;;;;;;4194197;28;20210;-75
2022/04/30 06:27:39;;;;;;;18.30;14.43;;;9.80;99.90;;;;;;4193568;28;20171;-75
2022/04/30 06:29:39;;;;;;;18.40;14.23;;;9.80;99.90;;;;;;4194825;28;20207;-75
2022/04/30 06:31:40;;;;;;;21.07;14.83;;;9.80;99.90;;;;;;4194855;28;20187;-75
2022/04/30 06:33:41;;;;;;;22.03;16.57;;;9.90;99.90;;;;;;4194753;28;20207;-75
2022/04/30 06:35:43;;;;;;;21.23;15.77;;;9.90;99.90;;;;;;4194144;28;20183;-75
2022/04/30 06:37:44;;;;;;;22.50;15.07;;;10.00;99.90;;;;;;4193308;28;20183;-75
2022/04/30 06:39:45;;;;;;;23.67;15.40;;;10.00;99.90;;;;;;4194565;28;20289;-75
2022/04/30 06:41:46;;;;;;;19.33;14.03;;;10.00;99.90;;;;;;4193493;28;20195;-75
2022/04/30 06:43:46;;;;;;;20.13;14.93;;;10.10;99.90;;;;;;4194509;28;20183;-75
2022/04/30 06:45:47;;;;;;;20.03;14.30;;;10.00;99.90;;;;;;4192855;28;20218;-75
2022/04/30 06:47:48;;;;;;;19.30;14.63;;;10.10;99.90;;;;;;4194588;28;20237;-75
2022/04/30 06:49:50;;;;;;;17.20;13.30;;;10.20;99.90;;;;;;4176618;28;20196;-75
2022/04/30 06:51:51;;;;;;;18.53;13.97;;;10.30;99.90;;;;;;4194749;28;20237;-75
2022/04/30 06:58:40;;;;;;;18.27;12.97;;;10.40;99.90;;;;;;4194640;28;20209;-76
2022/04/30 07:02:56;;;;;;;14.43;10.87;;;10.30;99.90;;;;;;4192380;28;20192;-75
2022/04/30 07:04:59;;;;;;;15.83;12.20;;;10.10;99.80;;;;;;4194265;28;20226;-75
2022/04/30 07:07:00;;;;;;;16.60;13.00;;;10.10;98.90;;;;;;4193956;28;20222;-75
2022/04/30 07:09:03;;;;;;;14.33;11.93;;;10.10;99.90;;;;;;4192946;28;20199;-75
2022/04/30 07:11:04;;;;;;;13.87;10.67;;;10.30;99.90;;;;;;4193170;28;20183;-75
2022/04/30 07:13:05;;;;;;;16.20;11.90;;;10.40;99.90;;;;;;4194563;28;20252;-75
2022/04/30 07:15:06;;;;;;;14.33;10.83;;;10.40;99.30;;;;;;4194209;28;20187;-75
2022/04/30 07:17:12;;;;;;;13.17;10.10;;;10.60;99.50;;;;;;4196696;28;20188;-76
2022/04/30 07:19:13;;;;;;;15.10;11.33;;;11.00;98.10;;;;;;4195952;28;20234;-76
2022/04/30 07:21:14;;;;;;;12.47;10.13;;;11.10;96.40;;;;;;4197215;28;20176;-75
2022/04/30 07:23:14;;;;;;;13.73;10.53;;;11.20;97.10;;;;;;4195910;28;20179;-76
2022/04/30 07:25:15;;;;;;;12.30;9.77;;;11.70;94.90;;;;;;4196879;28;20716;-75
2022/04/30 07:27:16;;;;;;;13.37;10.33;;;11.50;94.60;;;;;;4196901;28;20736;-75
2022/04/30 07:29:17;;;;;;;11.90;9.77;;;11.20;96.50;;;;;;4197323;28;20248;-75
2022/04/30 07:31:17;;;;;;;14.20;10.73;;;11.30;95.20;;;;;;4197247;28;20254;-75
2022/04/30 07:33:18;;;;;;;13.23;10.87;;;11.20;94.60;;;;;;4196112;28;20262;-76
2022/04/30 07:35:19;;;;;;;13.37;10.80;;;11.20;96.00;;;;;;4196969;28;20186;-76
2022/04/30 07:37:20;;;;;;;13.37;9.00;;;11.00;95.40;;;;;;4195671;28;20183;-76
2022/04/30 07:39:20;;;;;;;14.20;11.00;;;11.00;96.60;;;;;;4197171;28;20204;-75
2022/04/30 07:41:21;;;;;;;12.70;9.93;;;11.30;94.80;;;;;;4195878;28;20533;-75
2022/04/30 07:43:22;;;;;;;13.60;10.53;;;11.40;95.70;;;;;;4195833;28;20184;-76
2022/04/30 07:45:23;;;;;;;12.37;9.70;;;11.70;94.20;;;;;;4195250;28;20214;-75
2022/04/30 07:47:25;;;;;;;13.03;10.23;;;11.70;94.90;;;;;;4195681;28;20713;-75
2022/04/30 07:49:26;;;;;;;11.57;9.93;;;12.00;94.80;;;;;;4197103;28;20227;-75
2022/04/30 07:51:42;;;;;;;13.33;10.93;;;11.80;94.20;;;;;;4197284;28;20266;-75
2022/04/30 07:53:43;;;;;;;12.23;10.50;;;12.00;93.10;;;;;;4195808;28;20218;-75
2022/04/30 07:55:44;;;;;;;11.87;9.63;;;11.90;93.40;;;;;;4195575;28;20184;-75
2022/04/30 07:57:44;;;;;;;11.10;8.90;;;11.90;94.00;;;;;;4195914;28;20186;-75
2022/04/30 07:59:46;;;;;;;12.47;9.30;;;12.00;92.50;;;;;;4196051;28;20248;-75
2022/04/30 08:01:47;;;;;;;11.57;8.83;;;12.10;90.60;;;;;;4197171;28;20714;-76
2022/04/30 08:03:48;;;;;;;11.67;8.67;;;12.20;92.70;;;;;;4195537;28;20190;-75
2022/04/30 08:05:48;;;;;;;10.40;8.30;;;12.30;92.20;;;;;;4196390;28;20207;-76
2022/04/30 08:07:50;;;;;;;11.93;8.57;;;12.40;90.50;;;;;;4195561;28;20180;-75
2022/04/30 08:09:51;;;;;;;14.07;8.93;;;12.10;92.60;;;;;;4195596;28;20278;-75
2022/04/30 08:11:51;;;;;;;11.73;9.17;;;12.40;92.20;;;;;;4197427;28;20207;-75
2022/04/30 08:13:52;;;;;;;10.37;8.33;;;12.30;90.10;;;;;;4196412;28;20221;-76
2022/04/30 08:15:53;;;;;;;9.83;8.67;;;12.50;89.80;;;;;;4197732;28;20549;-75
2022/04/30 08:17:54;;;;;;;11.10;9.10;;;12.40;90.40;;;;;;4196531;28;20543;-75
2022/04/30 08:19:55;;;;;;;14.70;9.07;;;12.60;89.80;;;;;;4195737;28;20294;-76
2022/04/30 08:21:56;;;;;;;10.60;8.10;;;12.50;90.20;;;;;;4195506;28;20190;-75
2022/04/30 08:23:57;;;;;;;11.40;9.33;;;12.50;91.30;;;;;;4195311;28;20258;-75
2022/04/30 08:25:57;;;;;;;11.87;9.63;;;12.20;90.60;;;;;;4194731;28;20233;-75
2022/04/30 08:27:58;;;;;;;9.70;7.90;;;12.30;90.40;;;;;;4194338;28;20175;-75
2022/04/30 08:29:59;;;;;;;11.87;9.67;;;12.80;92.20;;;;;;4195184;28;20198;-74
2022/04/30 08:31:59;;;;;;;9.13;8.13;;;13.10;88.30;;;;;;4195256;28;20207;-75
2022/04/30 08:34:00;;;;;;;11.70;9.43;;;13.20;86.90;;;;;;4195314;28;20208;-75
2022/04/30 08:36:01;;;;;;;9.10;8.13;;;13.40;90.20;;;;;;4195985;28;20180;-75
2022/04/30 08:38:01;;;;;;;10.67;7.93;;;13.70;85.60;;;;;;4195248;28;20203;-75
2022/04/30 08:40:02;;;;;;;9.30;8.00;;;13.90;80.20;;;;;;4196228;28;20275;-75
2022/04/30 08:42:08;;;;;;;10.40;9.07;;;14.00;80.10;;;;;;4196365;28;20176;-76
2022/04/30 08:44:17;;;;;;;12.63;10.50;;;14.20;80.20;;;;;;4196157;28;20164;-75
2022/04/30 08:46:21;;;;;;;13.67;9.07;;;14.40;77.70;;;;;;4194235;28;20168;-75
2022/04/30 08:48:26;;;;;;;8.23;7.17;;;13.80;79.10;;;;;;4196060;28;20183;-75
2022/04/30 08:50:29;;;;;;;11.43;8.23;;;13.90;75.90;;;;;;4196260;28;20198;-75
2022/04/30 08:52:30;;;;;;;8.53;7.47;;;13.30;77.80;;;;;;4194511;28;20172;-75
2022/04/30 08:54:30;;;;;;;10.50;7.23;;;13.10;80.20;;;;;;4196067;28;20207;-75
2022/04/30 08:56:34;;;;;;;9.10;7.73;;;12.50;82.90;;;;;;4195459;28;20203;-75
2022/04/30 08:58:35;;;;;;;9.83;7.60;;;12.30;81.80;;;;;;4178003;28;20299;-76
2022/04/30 09:00:45;;;;;;;9.20;7.27;;;12.50;82.40;;;;;;4195026;28;20692;-75
2022/04/30 09:03:00;;;;;;;9.23;7.80;;;12.20;82.90;;;;;;4194485;28;20669;-75
2022/04/30 09:05:00;;;;;;;10.80;8.60;;;12.10;83.90;;;;;;4195412;28;20643;-75
2022/04/30 09:07:01;;;;;;;11.93;8.03;;;12.10;87.20;;;;;;4195186;28;20176;-75
2022/04/30 09:09:02;;;;;;;9.53;7.97;;;12.40;89.80;;;;;;4187052;28;20207;-75
2022/04/30 09:11:07;;;;;;;10.80;8.33;;;12.50;89.30;;;;;;4179145;28;20191;-76
2022/04/30 09:13:15;;;;;;;10.70;8.00;;;12.80;89.00;;;;;;4179010;28;20226;-75
2022/04/30 09:15:16;;;;;;;12.47;8.50;;;13.10;85.10;;;;;;4178973;28;20302;-76
2022/04/30 09:17:17;;;;;;;12.17;9.07;;;13.70;83.30;;;;;;4160738;28;20663;-76
2022/04/30 09:19:18;;;;;;;10.23;7.97;;;14.00;83.50;;;;;;4177513;28;20216;-75
2022/04/30 09:21:19;;;;;;;13.10;8.80;;;14.50;77.10;;;;;;4177720;28;20226;-75
2022/04/30 09:23:31;;;;;;;9.57;7.40;;;14.80;73.40;;;;;;4177375;28;20722;-75
2022/04/30 09:25:32;;;;;;;10.53;8.23;;;14.80;69.80;;;;;;4176691;28;20212;-75
2022/04/30 09:27:33;;;;;;;9.67;7.73;;;14.60;72.10;;;;;;4178765;28;20522;-75
2022/04/30 09:29:34;;;;;;;9.63;8.33;;;14.60;70.40;;;;;;4179950;28;20741;-75
2022/04/30 09:31:39;;;;;;;8.43;7.33;;;14.20;69.50;;;;;;4192846;28;20187;-75
2022/04/30 09:33:55;;;;;;;9.70;7.20;;;14.00;70.40;;;;;;4193891;28;20214;-74
2022/04/30 09:38:26;;;;;;;8.40;7.10;;;14.30;73.90;;;;;;4193785;28;20174;-74
2022/04/30 09:40:26;;;;;;;8.20;6.57;;;14.30;68.80;;;;;;4193603;28;20286;-75
2022/04/30 09:42:38;;;;;;;8.03;6.87;;;14.30;65.50;;;;;;4195343;28;20237;-74
2022/04/30 09:44:39;;;;;;;7.80;6.77;;;14.50;65.60;;;;;;4193715;28;20240;-75
2022/04/30 09:46:40;;;;;;;8.00;6.97;;;14.70;67.40;;;;;;4194495;28;20176;-75
2022/04/30 09:55:40;;;;;;;10.33;8.13;;;14.10;68.80;;;;;;4184634;28;20627;-74
2022/04/30 09:57:42;;;;;;;10.00;8.17;;;13.70;70.20;;;;;;4177123;28;20274;-75
2022/04/30 09:59:45;;;;;;;8.37;6.47;;;14.00;71.30;;;;;;4177098;28;20208;-76
2022/04/30 10:01:48;;;;;;;7.10;6.40;;;14.40;63.20;;;;;;4160622;28;20185;-76
2022/04/30 10:03:49;;;;;;;8.03;5.90;;;14.80;60.40;;;;;;4178566;28;20182;-77
2022/04/30 10:05:57;;;;;;;6.50;5.50;;;15.40;58.90;;;;;;4176666;28;20212;-75
2022/04/30 10:08:00;;;;;;;9.63;6.17;;;16.00;55.00;;;;;;4177019;28;20722;-77
2022/04/30 10:10:21;;;;;;;7.70;5.73;;;16.00;52.60;;;;;;4177070;28;20667;-77
2022/04/30 10:12:32;;;;;;;8.17;6.10;;;15.60;55.50;;;;;;4177837;28;20168;-76
2022/04/30 10:15:15;;;;;;;8.00;6.03;;;15.40;54.20;;;;;;4177000;28;20202;-76
2022/04/30 10:17:17;;;;;;;6.43;5.30;;;15.40;54.60;;;;;;4176715;28;20172;-77
2022/04/30 10:19:21;;;;;;;5.40;4.80;;;14.80;55.50;;;;;;4178088;28;20215;-72
2022/04/30 10:21:22;;;;;;;9.27;5.73;;;14.80;55.50;;;;;;4176897;28;20211;-72
2022/04/30 10:23:24;;;;;;;5.77;5.17;;;14.70;57.00;;;;;;4178181;28;20195;-74
2022/04/30 10:25:44;;;;;;;9.10;5.60;;;14.20;57.10;;;;;;4177596;28;20213;-72
2022/04/30 10:27:47;;;;;;;7.87;5.33;;;14.00;59.40;;;;;;4177120;28;20169;-74
2022/04/30 10:30:17;;;;;;;8.00;5.80;;;13.90;60.00;;;;;;4177760;28;20551;-73
2022/04/30 10:32:35;;;;;;;8.10;6.60;;;13.70;59.60;;;;;;4192632;28;20262;-73
2022/04/30 10:34:36;;;;;;;8.77;5.93;;;13.20;66.70;;;;;;4193067;28;20180;-73
2022/04/30 10:36:39;;;;;;;7.47;6.70;;;13.00;70.80;;;;;;4204643;28;20187;-73
2022/04/30 10:38:42;;;;;;;7.00;5.70;;;13.20;72.20;;;;;;4196318;28;20223;-74
2022/04/30 10:40:51;;;;;;;7.83;6.33;;;13.60;73.30;;;;;;4206071;28;20187;-74
2022/04/30 10:42:52;;;;;;;8.87;6.43;;;13.90;70.80;;;;;;4210687;28;20202;-74
2022/04/30 10:44:56;;;;;;;7.57;6.37;;;13.90;71.50;;;;;;4198589;28;20204;-75
2022/04/30 10:47:14;;;;;;;8.60;6.90;;;14.30;71.90;;;;;;4207837;28;20202;-74
2022/04/30 10:49:15;;;;;;;7.20;6.50;;;15.00;70.60;;;;;;4195888;28;20230;-74
2022/04/30 10:51:43;;;;;;;9.80;7.37;;;16.00;63.70;;;;;;4211725;28;20203;-74
2022/04/30 10:53:46;;;;;;;7.07;6.47;;;15.70;64.50;;;;;;4188959;28;20181;-74
2022/04/30 10:55:47;;;;;;;6.97;6.27;;;15.80;64.00;;;;;;4209203;28;20666;-73
2022/04/30 10:57:47;;;;;;;7.83;6.00;;;16.30;60.50;;;;;;4184442;28;20241;-74
2022/04/30 11:00:01;;;;;;;6.23;5.50;;;16.30;54.30;;;;;;4210473;28;20204;-73
2022/04/30 11:02:02;;;;;;;9.27;5.70;;;16.20;50.90;;;;;;4203955;28;20740;-74
2022/04/30 11:04:03;;;;;;;6.53;5.83;;;16.90;51.10;;;;;;4208183;28;20215;-73
2022/04/30 11:06:04;;;;;;;7.43;5.50;;;18.30;45.70;;;;;;4197669;28;20183;-73
2022/04/30 11:08:04;;;;;;;6.13;5.20;;;19.00;44.60;;;;;;4203033;28;20179;-72
2022/04/30 11:10:09;;;;;;;6.70;5.53;;;19.70;40.40;;;;;;4208185;28;20249;-73